Map

Track Data

SID SEASON NUMBER BASIN SUBBASIN NAME ISO_TIME NATURE LAT LON WMO_WIND WMO_PRES WMO_AGENCY TRACK_TYPE DIST2LAND LANDFALL IFLAG USA_AGENCY USA_ATCF_ID USA_LAT USA_LON USA_RECORD USA_STATUS USA_WIND USA_PRES USA_SSHS USA_R34_NE USA_R34_SE USA_R34_SW USA_R34_NW USA_R50_NE USA_R50_SE USA_R50_SW USA_R50_NW USA_R64_NE USA_R64_SE USA_R64_SW USA_R64_NW USA_POCI USA_ROCI USA_RMW USA_EYE TOKYO_LAT TOKYO_LON TOKYO_GRADE TOKYO_WIND TOKYO_PRES TOKYO_R50_DIR TOKYO_R50_LONG TOKYO_R50_SHORT TOKYO_R30_DIR TOKYO_R30_LONG TOKYO_R30_SHORT TOKYO_LAND CMA_LAT CMA_LON CMA_CAT CMA_WIND CMA_PRES HKO_LAT HKO_LON HKO_CAT HKO_WIND HKO_PRES NEWDELHI_LAT NEWDELHI_LON NEWDELHI_GRADE NEWDELHI_WIND NEWDELHI_PRES NEWDELHI_CI NEWDELHI_DP NEWDELHI_POCI REUNION_LAT REUNION_LON REUNION_TYPE REUNION_WIND REUNION_PRES REUNION_TNUM REUNION_CI REUNION_RMW REUNION_R34_NE REUNION_R34_SE REUNION_R34_SW REUNION_R34_NW REUNION_R50_NE REUNION_R50_SE REUNION_R50_SW REUNION_R50_NW REUNION_R64_NE REUNION_R64_SE REUNION_R64_SW REUNION_R64_NW BOM_LAT BOM_LON BOM_TYPE BOM_WIND BOM_PRES BOM_TNUM BOM_CI BOM_RMW BOM_R34_NE BOM_R34_SE BOM_R34_SW BOM_R34_NW BOM_R50_NE BOM_R50_SE BOM_R50_SW BOM_R50_NW BOM_R64_NE BOM_R64_SE BOM_R64_SW BOM_R64_NW BOM_ROCI BOM_POCI BOM_EYE BOM_POS_METHOD BOM_PRES_METHOD NADI_LAT NADI_LON NADI_CAT NADI_WIND NADI_PRES WELLINGTON_LAT WELLINGTON_LON WELLINGTON_WIND WELLINGTON_PRES DS824_LAT DS824_LON DS824_STAGE DS824_WIND DS824_PRES TD9636_LAT TD9636_LON TD9636_STAGE TD9636_WIND TD9636_PRES TD9635_LAT TD9635_LON TD9635_WIND TD9635_PRES TD9635_ROCI NEUMANN_LAT NEUMANN_LON NEUMANN_CLASS NEUMANN_WIND NEUMANN_PRES MLC_LAT MLC_LON MLC_CLASS MLC_WIND MLC_PRES USA_GUST BOM_GUST BOM_GUST_PER REUNION_GUST REUNION_GUST_PER USA_SEAHGT USA_SEARAD_NE USA_SEARAD_SE USA_SEARAD_SW USA_SEARAD_NW STORM_SPEED STORM_DIR
1898287N16118 1898 51 WP MM NOT_NAMED 1898-10-14 04:00:00 NR 16.0000 117.800 main 203 192 __________O___ -1 16.0000 117.800 3 3 40
1898287N16118 1898 51 WP MM NOT_NAMED 1898-10-14 06:00:00 NR 16.0608 117.860 main 192 192 __________P___ -1 16.0608 117.860 3 2 43
1898287N16118 1898 51 WP MM NOT_NAMED 1898-10-14 09:00:00 NR 16.1480 117.946 main 192 183 __________P___ -1 16.1480 117.946 3 2 44
1898287N16118 1898 51 WP MM NOT_NAMED 1898-10-14 12:00:00 NR 16.2247 118.022 main 183 174 __________P___ -1 16.2247 118.022 3 2 44
1898287N16118 1898 51 WP MM NOT_NAMED 1898-10-14 15:00:00 NR 16.2848 118.084 main 174 174 __________P___ -1 16.2848 118.084 3 2 48
1898287N16118 1898 51 WP MM NOT_NAMED 1898-10-14 16:00:00 NR 16.3000 118.100 main 174 174 __________O___ -1 16.3000 118.100 4 1 47
1898287N16118 1898 51 WP MM NOT_NAMED 1898-10-14 18:00:00 NR 16.3233 118.126 main 174 166 __________P___ -1 16.3233 118.126 4 1 49
1898287N16118 1898 51 WP MM NOT_NAMED 1898-10-14 21:00:00 NR 16.3516 118.151 main 166 166 __________P___ -1 16.3516 118.151 4 1 31
1898287N16118 1898 51 WP MM NOT_NAMED 1898-10-15 00:00:00 NR 16.3913 118.170 main 166 166 __________P___ -1 16.3913 118.170 4 1 18
1898287N16118 1898 51 WP MM NOT_NAMED 1898-10-15 03:00:00 NR 16.4644 118.191 main 169 169 __________P___ -1 16.4644 118.191 4 2 24
1898287N16118 1898 51 WP MM NOT_NAMED 1898-10-15 04:00:00 NR 16.5000 118.200 main 169 169 __________O___ -1 16.5000 118.200 4 3 19
1898287N16118 1898 51 WP MM NOT_NAMED 1898-10-15 06:00:00 NR 16.5991 118.241 main 173 163 __________P___ -1 16.5991 118.241 4 4 20
1898287N16118 1898 51 WP MM NOT_NAMED 1898-10-15 09:00:00 NR 16.7856 118.308 main 169 163 __________P___ -1 16.7856 118.308 4 4 16
1898287N16118 1898 51 WP MM NOT_NAMED 1898-10-15 12:00:00 NR 17.0007 118.367 main 168 168 __________P___ -1 17.0007 118.367 4 5 11
1898287N16118 1898 51 WP MM NOT_NAMED 1898-10-15 15:00:00 NR 17.2259 118.399 main 179 179 __________P___ -1 17.2259 118.399 4 5 7
1898287N16118 1898 51 WP MM NOT_NAMED 1898-10-15 16:00:00 NR 17.3000 118.400 main 186 186 __________O___ -1 17.3000 118.400 4 4 353
1898287N16118 1898 51 WP MM NOT_NAMED 1898-10-15 18:00:00 NR 17.4412 118.384 main 193 200 __________P___ -1 17.4412 118.384 4 4 348
1898287N16118 1898 51 WP MM NOT_NAMED 1898-10-15 21:00:00 NR 17.6532 118.328 main 212 212 __________P___ -1 17.6532 118.328 4 4 342
1898287N16118 1898 51 WP MM NOT_NAMED 1898-10-16 00:00:00 NR 17.8570 118.243 main 224 224 __________P___ -1 17.8570 118.243 4 4 335
1898287N16118 1898 51 WP MM NOT_NAMED 1898-10-16 03:00:00 NR 18.0434 118.138 main 237 239 __________P___ -1 18.0434 118.138 4 4 330
1898287N16118 1898 51 WP MM NOT_NAMED 1898-10-16 04:00:00 NR 18.1000 118.100 main 239 239 __________O___ -1 18.1000 118.100 4 4 325
1898287N16118 1898 51 WP MM NOT_NAMED 1898-10-16 06:00:00 NR 18.1979 118.023 main 252 252 __________P___ -1 18.1979 118.023 4 4 319
1898287N16118 1898 51 WP MM NOT_NAMED 1898-10-16 09:00:00 NR 18.3257 117.894 main 265 265 __________P___ -1 18.3257 117.894 4 3 315
1898287N16118 1898 51 WP MM NOT_NAMED 1898-10-16 12:00:00 NR 18.4418 117.762 main 279 279 __________P___ -1 18.4418 117.762 4 3 314
1898287N16118 1898 51 WP MM NOT_NAMED 1898-10-16 15:00:00 NR 18.5587 117.637 main 306 306 __________P___ -1 18.5587 117.637 4 3 316
1898287N16118 1898 51 WP MM NOT_NAMED 1898-10-16 16:00:00 NR 18.6000 117.600 main 306 306 __________O___ -1 18.6000 117.600 4 3 324
1898287N16118 1898 51 WP MM NOT_NAMED 1898-10-16 18:00:00 NR 18.6864 117.536 main 320 320 __________P___ -1 18.6864 117.536 4 3 328
1898287N16118 1898 51 WP MM NOT_NAMED 1898-10-16 21:00:00 NR 18.8221 117.452 main 324 334 __________P___ -1 18.8221 117.452 4 3 332
1898287N16118 1898 51 WP MM NOT_NAMED 1898-10-17 00:00:00 NR 18.9708 117.381 main 341 341 __________P___ -1 18.9708 117.381 4 3 338
1898287N16118 1898 51 WP MM NOT_NAMED 1898-10-17 03:00:00 NR 19.1387 117.319 main 355 355 __________P___ -1 19.1387 117.319 4 4 340
1898287N16118 1898 51 WP MM NOT_NAMED 1898-10-17 04:00:00 NR 19.2000 117.300 main 358 358 __________O___ -1 19.2000 117.300 4 4 344
1898287N16118 1898 51 WP MM NOT_NAMED 1898-10-17 06:00:00 NR 19.3329 117.256 main 361 361 __________P___ -1 19.3329 117.256 4 4 344
1898287N16118 1898 51 WP MM NOT_NAMED 1898-10-17 09:00:00 NR 19.5511 117.196 main 375 351 __________P___ -1 19.5511 117.196 4 5 347
1898287N16118 1898 51 WP MM NOT_NAMED 1898-10-17 12:00:00 NR 19.7837 117.146 main 351 329 __________P___ -1 19.7837 117.146 4 5 351
1898287N16118 1898 51 WP MM NOT_NAMED 1898-10-17 15:00:00 NR 20.0213 117.109 main 329 319 __________P___ -1 20.0213 117.109 4 5 353
1898287N16118 1898 51 WP MM NOT_NAMED 1898-10-17 16:00:00 NR 20.1000 117.100 main 319 297 __________O___ -1 20.1000 117.100 4 5 358
1898287N16118 1898 51 WP MM NOT_NAMED 1898-10-17 18:00:00 NR 20.2552 117.086 main 297 275 __________P___ -1 20.2552 117.086 4 5 0
1898287N16118 1898 51 WP MM NOT_NAMED 1898-10-17 21:00:00 NR 20.4882 117.077 main 275 253 __________P___ -1 20.4882 117.077 4 5 357
1898287N16118 1898 51 WP MM NOT_NAMED 1898-10-18 00:00:00 NR 20.7158 117.081 main 253 232 __________P___ -1 20.7158 117.081 4 4 3
1898287N16118 1898 51 WP MM NOT_NAMED 1898-10-18 03:00:00 NR 20.9317 117.094 main 232 221 __________P___ -1 20.9317 117.094 4 4 5
1898287N16118 1898 51 WP MM NOT_NAMED 1898-10-18 04:00:00 NR 21.0000 117.100 main 221 210 __________O___ -1 21.0000 117.100 4 4 2
1898287N16118 1898 51 WP MM NOT_NAMED 1898-10-18 06:00:00 NR 21.1255 117.108 main 210 189 __________P___ -1 21.1255 117.108 4 4 3
1898287N16118 1898 51 WP MM NOT_NAMED 1898-10-18 09:00:00 NR 21.3010 117.127 main 189 172 __________P___ -1 21.3010 117.127 4 3 8
1898287N16118 1898 51 WP MM NOT_NAMED 1898-10-18 12:00:00 NR 21.4696 117.153 main 172 162 __________P___ -1 21.4696 117.153 4 3 10
1898287N16118 1898 51 WP MM NOT_NAMED 1898-10-18 15:00:00 NR 21.6408 117.187 main 162 152 __________P___ -1 21.6408 117.187 4 4 10
1898287N16118 1898 51 WP MM NOT_NAMED 1898-10-18 16:00:00 NR 21.7000 117.200 main 152 142 __________O___ -1 21.7000 117.200 4 4 10
1898287N16118 1898 51 WP MM NOT_NAMED 1898-10-18 18:00:00 NR 21.8276 117.225 main 142 129 __________P___ -1 21.8276 117.225 4 4 13
1898287N16118 1898 51 WP MM NOT_NAMED 1898-10-18 21:00:00 NR 22.0254 117.269 main 129 113 __________P___ -1 22.0254 117.269 4 4 12
1898287N16118 1898 51 WP MM NOT_NAMED 1898-10-19 00:00:00 NR 22.2279 117.320 main 113 106 __________P___ -1 22.2279 117.320 4 4 15
1898287N16118 1898 51 WP MM NOT_NAMED 1898-10-19 03:00:00 NR 22.4321 117.379 main 107 102 __________P___ -1 22.4321 117.379 4 4 13
1898287N16118 1898 51 WP MM NOT_NAMED 1898-10-19 04:00:00 NR 22.5000 117.400 main 102 98 __________O___ -1 22.5000 117.400 4 4 14
1898287N16118 1898 51 WP MM NOT_NAMED 1898-10-19 06:00:00 NR 22.6385 117.431 main 98 88 __________P___ -1 22.6385 117.431 4 4 13
1898287N16118 1898 51 WP MM NOT_NAMED 1898-10-19 09:00:00 NR 22.8464 117.484 main 88 69 __________P___ -1 22.8464 117.484 4 4 16
1898287N16118 1898 51 WP MM NOT_NAMED 1898-10-19 12:00:00 NR 23.0490 117.555 main 75 55 __________P___ -1 23.0490 117.555 4 4 22
1898287N16118 1898 51 WP MM NOT_NAMED 1898-10-19 15:00:00 NR 23.2400 117.657 main 56 45 __________P___ -1 23.2400 117.657 4 4 27
1898287N16118 1898 51 WP MM NOT_NAMED 1898-10-19 16:00:00 NR 23.3000 117.700 main 45 35 __________O___ -1 23.3000 117.700 4 4 32
1898287N16118 1898 51 WP MM NOT_NAMED 1898-10-19 18:00:00 NR 23.4006 117.774 main 39 30 __________P___ -1 23.4006 117.774 4 4 39
1898287N16118 1898 51 WP MM NOT_NAMED 1898-10-19 21:00:00 NR 23.5386 117.915 main 37 32 __________P___ -1 23.5386 117.915 4 4 48
1898287N16118 1898 51 WP MM NOT_NAMED 1898-10-20 00:00:00 NR 23.6783 118.113 main 37 37 __________P___ -1 23.6783 118.113 4 5 55
1898287N16118 1898 51 WP MM NOT_NAMED 1898-10-20 03:00:00 NR 23.8387 118.387 main 55 51 __________P___ -1 23.8387 118.387 4 6 58
1898287N16118 1898 51 WP MM NOT_NAMED 1898-10-20 04:00:00 NR 23.9000 118.500 main 60 55 __________O___ -1 23.9000 118.500 4 8 57
1898287N16118 1898 51 WP MM NOT_NAMED 1898-10-20 06:00:00 NR 24.0488 118.739 main 56 45 __________P___ -1 24.0488 118.739 4 9 57
1898287N16118 1898 51 WP MM NOT_NAMED 1898-10-20 09:00:00 NR 24.2972 119.172 main 60 60 __________P___ -1 24.2972 119.172 4 10 59
1898287N16118 1898 51 WP MM NOT_NAMED 1898-10-20 12:00:00 NR 24.5597 119.689 main 75 46 __________P___ -1 24.5597 119.689 4 11 63
1898287N16118 1898 51 WP MM NOT_NAMED 1898-10-20 15:00:00 NR 24.8180 120.285 main 46 37 __________P___ -1 24.8180 120.285 4 12 65
1898287N16118 1898 51 WP MM NOT_NAMED 1898-10-20 16:00:00 NR 24.9000 120.500 main 39 10 __________O___ -1 24.9000 120.500 7 13 69
1898287N16118 1898 51 WP MM NOT_NAMED 1898-10-20 18:00:00 NR 25.0550 120.952 main 11 0 __________P___ -1 25.0550 120.952 7 14 71
1898287N16118 1898 51 WP MM NOT_NAMED 1898-10-20 21:00:00 NR 25.2675 121.677 main 15 15 __________P___ -1 25.2675 121.677 7 14 73
1898287N16118 1898 51 WP MM NOT_NAMED 1898-10-21 00:00:00 NR 25.4610 122.443 main 68 75 __________P___ -1 25.4610 122.443 7 15 75
1898287N16118 1898 51 WP MM NOT_NAMED 1898-10-21 03:00:00 NR 25.6416 123.234 main 137 152 __________P___ -1 25.6416 123.234 7 15 76
1898287N16118 1898 51 WP MM NOT_NAMED 1898-10-21 04:00:00 NR 25.7000 123.500 main 169 __________O___ -1 25.7000 123.500 7 15 76

Digital Typhoon Data and Search

About IBTrACS Database

This database is a web-friendly format of International Best Track Archive for Climate Stewardship (IBTrACS), a global best track data archive curated by NOAA dating back to 1842.

Updated: 2021-12-03